プラハ の空港の天気 - METARとTAF

ルズィニエ国際空港(プラハ) ( LKPR / PRG ) - チェコ プラハ
飛行場実況気象(Metar)
観測時間03/28 23:00 CEST (03/28 21:00 UTC)
風向・風速南西 5m/s
視程10km以上
天気現象
なし
気温10℃
湿度58%
気圧1021hPa
METARLKPR 282100Z 22010KT CAVOK 10/02 Q1021 NOSIG
過去の天気等 Google飛行場航空写真 Wunderground天気予報

過去48時間のMETAR

飛行場予報(TAF)
発表時間: 3/28 19:00 CEST (3/28 17:00 UTC)
予報対象時間: 28日20時 CEST ~ 30日2時 CEST
風向・風速南西 5m/s
視程10km以上
なし
28日22時 CEST ~ 29日4時 CEST に一時的に
風向・風速西 8m/s
29日10時 CEST ~ 29日20時 CEST に一時的に
風向・風速西 8m/s 瞬間風速 14m/s
29日12時 CEST ~ 29日14時 CEST に徐々に
全天の4割程度の雲 雲底高度 1,100m
29日14時 CEST ~ 30日2時 CEST に一時的に
全天の8割程度の雲 雲底高度 1,010m
29日20時 CEST ~ 29日22時 CEST に徐々に
風向・風速北北西 4m/s
TAF LKPR 281700Z 2818/3000 23010KT CAVOK
TEMPO 2820/2902 26016KT
TEMPO 2908/2918 28016G28KT
BECMG 2910/2912 SCT036
TEMPO 2912/3000 BKN033
BECMG 2918/2920 34008KT